»·PEaware :: SWA976 KHOU-KMSY

SWA976 :: KHOU-KMSY

FLIGHT INFORMATION

Flight Status: Arrived
Operator:
Southwest Airlines
More flights by this operator :: More flights under this callsign
Pilot: Anonymous 14085 (14085)
Aircraft: BOEING 737-300
(B733)
More flights by this aircraft type
Origin: KHOU Hobby
United States
Destination: KMSY Armstrong New Orleans Intl
United States
More flights between these airports :: More routes between these airports
Route: ELOCO4 LLA AWDAD AWDAD9
File this flight plan on PilotEdge
Remarks: PBN / A1B3B4B5D3D4 DOF / 170531 REG / N372SB OPR / SWA RMK / TCAS SIMBRIEF
Altitude:
(Current/Filed)
35,000ft
Speed:
(Current/Filed)
412kts
Departed: 30-May-17 04:43 PM
Arrived: 30-May-17 05:33 PM
Distance/Time
Traveled:
262nm/0:49
Distance/Time
To Go:
Arrived

Flight Plot

Page will automatically refresh every two minutes.

Flight plan parsing failed; only flown route is shown


Map Options




Map Legend


Flown Route
Filed Route
Departure Airport
Arrival Airport
Navaid (VOR, NDB)
Fix

Horizontal Profiles

Position Reports

Time Latitude Longitude Heading Altitude Ground
Speed
30-May-17 16:29 29.652801 -95.278497 155 48ft 0kts
30-May-17 16:30 29.652801 -95.278497 155 48ft 0kts
30-May-17 16:31 29.652801 -95.278497 155 48ft 0kts
30-May-17 16:32 29.652801 -95.278497 155 48ft 0kts
30-May-17 16:33 29.652801 -95.278497 155 48ft 0kts
30-May-17 16:34 29.652801 -95.278497 155 48ft 0kts
30-May-17 16:35 29.652801 -95.278497 155 48ft 0kts
30-May-17 16:36 29.652801 -95.278497 155 48ft 0kts
30-May-17 16:37 29.652801 -95.278497 155 48ft 0kts
30-May-17 16:38 29.652801 -95.278497 155 48ft 0kts
30-May-17 16:39 29.652801 -95.278497 155 48ft 0kts
30-May-17 16:40 29.652801 -95.278497 155 48ft 0kts
30-May-17 16:41 29.653036 -95.278618 155 48ft 0kts
30-May-17 16:42 29.653367 -95.278792 161 48ft 1kts
30-May-17 16:43 29.652182 -95.280904 251 48ft 9kts
30-May-17 16:44 29.653050 -95.282862 260 48ft 11kts
30-May-17 16:45 29.650491 -95.284626 179 48ft 46kts
30-May-17 16:46 29.615057 -95.273213 117 2480ft 179kts
30-May-17 16:47 29.581899 -95.207752 127 5635ft 269kts
30-May-17 16:48 29.573617 -95.126912 81 9942ft 287kts
30-May-17 16:49 29.585148 -95.034203 82 13985ft 305kts
30-May-17 16:50 29.608997 -94.939013 72 17623ft 322kts
30-May-17 16:51 29.636339 -94.839869 74 20870ft 339kts
30-May-17 16:52 29.636556 -94.729791 89 23789ft 355kts
30-May-17 16:53 29.638300 -94.625115 88 25848ft 380kts
30-May-17 16:54 29.640734 -94.497874 88 27152ft 427kts
30-May-17 16:55 29.643364 -94.359085 88 29534ft 440kts
30-May-17 16:56 29.645101 -94.262976 88 30872ft 439kts
30-May-17 16:57 29.647304 -94.125944 88 30969ft 455kts
30-May-17 16:58 29.649629 -93.980475 88 31005ft 457kts
30-May-17 16:59 29.651813 -93.834352 88 31003ft 457kts
30-May-17 17:00 29.653835 -93.688350 88 31003ft 457kts
30-May-17 17:01 29.655695 -93.542394 88 31003ft 457kts
30-May-17 17:02 29.657396 -93.396573 88 31003ft 457kts
30-May-17 17:03 29.658933 -93.250949 89 31005ft 457kts
30-May-17 17:04 29.660313 -93.105163 89 31003ft 457kts
30-May-17 17:05 29.661488 -92.965262 89 31003ft 457kts
30-May-17 17:06 29.662559 -92.819003 89 31003ft 457kts
30-May-17 17:07 29.663466 -92.673406 89 31003ft 457kts
30-May-17 17:08 29.664216 -92.527331 89 30402ft 456kts
30-May-17 17:09 29.664824 -92.381741 88 28586ft 456kts
30-May-17 17:10 29.702480 -92.251989 69 26443ft 427kts
30-May-17 17:11 29.742795 -92.128694 69 24347ft 403kts
30-May-17 17:12 29.780719 -92.011572 69 22253ft 383kts
30-May-17 17:13 29.816582 -91.900431 69 20165ft 364kts
30-May-17 17:14 29.850910 -91.793700 69 18072ft 349kts
30-May-17 17:15 29.883512 -91.692014 69 15979ft 332kts
30-May-17 17:16 29.914451 -91.595230 69 14163ft 312kts
30-May-17 17:17 29.943436 -91.504284 69 12671ft 301kts
30-May-17 17:18 29.971856 -91.414910 69 11180ft 294kts
30-May-17 17:19 29.999251 -91.328433 70 9806ft 283kts
30-May-17 17:20 30.025603 -91.244876 70 8613ft 281kts
30-May-17 17:21 30.052154 -91.160827 70 7536ft 278kts
30-May-17 17:22 30.078278 -91.077829 70 6859ft 273kts
30-May-17 17:23 30.103854 -90.995760 75 6882ft 276kts
30-May-17 17:24 30.095450 -90.912432 101 6498ft 252kts
30-May-17 17:25 30.086022 -90.835611 97 5844ft 240kts
30-May-17 17:26 30.078341 -90.761386 95 4939ft 228kts
30-May-17 17:27 30.072083 -90.690364 96 4044ft 223kts
30-May-17 17:28 30.064189 -90.620002 98 3479ft 221kts
30-May-17 17:29 30.060211 -90.551364 96 2972ft 208kts
30-May-17 17:30 30.046733 -90.487278 106 2469ft 198kts
30-May-17 17:31 30.032634 -90.431638 105 2008ft 163kts
30-May-17 17:32 30.021084 -90.383280 105 1727ft 141kts
30-May-17 17:33 30.011234 -90.341327 105 920ft 135kts
30-May-17 17:34 30.001050 -90.299998 106 384ft 130kts
30-May-17 17:35 29.993309 -90.267983 106 10ft 38kts
30-May-17 17:36 29.991138 -90.264122 106 10ft 13kts
30-May-17 17:37 29.989733 -90.258298 105 10ft 21kts
30-May-17 17:38 29.987586 -90.251791 190 10ft 16kts
30-May-17 17:39 29.987208 -90.252698 250 10ft 0kts

Navigation Log

Ident Type
Flight plan parsing failed, navigation log unavailable